Estância Flamboyants Heliport

SDVX · São Paulo, 巴西

使用的METAR站距离机场83 km。
罗盘
风向 的 直升机
风: 0 kt, 0 beaufort
0 ft 1.000 2.000 3.000 4.000 5.000
Cloud Cloud Cloud Cloud
SCT 1.500
Cloud Cloud Cloud Cloud Cloud Cloud
BKN 2.000
METAR SBRP 290700Z 00000KT 9999 SCT015 BKN020 14/13 Q1021

METAR Estância Flamboyants Heliport - SDVX

Estância Flamboyants Heliport是,巴西中的直升机场。 该机场位于纬度-21,86687和经度-47,62872。 本场的ICAO机场代码为SDVX。 机场在Brasilia FIR中。

该航空气象观测是针对Leite Lopes Airport在2024年5月29日 04:00, 当地时间进行的。

机场观察

可变方向的风很小或没有风。

可见度为10 km 或者更多。

有疏云,零星散落的云朵在1.500 ft的高度 和 碎云在2.000 ft的高度。 破损或更高的上限为2.000 ft。

温度和风寒是14 °C。 露点为13 °C,相对湿度为94%。 海平面上的气压为1021 hPa (QNH)。

白天

今天,太阳从06:40升起,在17:35降落。 这适用于Estância Flamboyants Heliport,世界夏令时可能有所不同。 当地时间与世界标准时间之间的时差为-3 小时。 夏令时目前正在进行中。

公司介绍

我们没有关于这个机场的公司信息。

体会

到Vliegles.nl去找飞行课程,跳伞和其他飞行体验。 浏览页面,了解Estância Flamboyants Heliport附近所有可用的活动。 你也可以使用搜索功能来寻找你所在地附近的特定飞行课程、跳伞或其他飞行体验。

乌云

1.500 ft SCT 疏云,零星散落的云朵
2.000 ft BKN 碎云

温度 & 天气

温度 14 °C
露点 13 °C
相对湿度 94%
Kp-index 1 (0-9)

白天

日出
06:40 (1:46)
中午
12:08
日落
17:37

小工具

你想在你的网站上有一个关于Estância Flamboyants Heliport的当前航空天气(METAR)的小部件吗?

显示HTML代码
报告变更